Time;durP1;ratioP1;P1;durP2;ratioP2;P2;SDS_P1;SDS_P2;PMS_P1;PMS_P2;Temp;Humidity;BMP_temperature;BMP_pressure;BME280_temperature;BME280_humidity;BME280_pressure;Samples;Min_cycle;Max_cycle;Signal;HPM_P1;HPM_P2
2022/04/10 00:00:40;;;;;;;1999.90;999.90;;;3.90;99.90;;;;;;4992679;28;20417;-70
2022/04/10 00:03:07;;;;;;;1999.90;999.90;;;3.90;99.90;;;;;;4992610;28;20602;-71
2022/04/10 00:05:32;;;;;;;1999.90;999.90;;;3.90;99.90;;;;;;4992288;28;20419;-70
2022/04/10 00:07:58;;;;;;;1999.90;999.90;;;3.90;99.90;;;;;;4992572;28;20177;-71
2022/04/10 00:10:24;;;;;;;1999.90;999.90;;;3.80;99.90;;;;;;4992633;28;20566;-69
2022/04/10 00:12:50;;;;;;;1999.90;999.90;;;3.90;99.90;;;;;;4992617;28;20166;-70
2022/04/10 00:15:15;;;;;;;1999.90;999.90;;;3.90;99.90;;;;;;4992258;28;20169;-70
2022/04/10 00:17:41;;;;;;;1999.90;999.90;;;3.80;99.90;;;;;;4992594;28;20974;-69
2022/04/10 00:20:09;;;;;;;1999.90;999.90;;;3.80;99.90;;;;;;4992415;28;20652;-70
2022/04/10 00:22:44;;;;;;;1999.90;999.90;;;3.70;99.90;;;;;;4992484;28;20416;-71
2022/04/10 00:25:15;;;;;;;1999.90;999.90;;;3.70;99.90;;;;;;4992263;28;20588;-71
2022/04/10 00:27:41;;;;;;;1999.90;999.90;;;3.70;99.90;;;;;;4991712;28;20166;-71
2022/04/10 00:30:12;;;;;;;1999.90;999.90;;;3.70;99.90;;;;;;4992220;28;20202;-71
2022/04/10 00:32:39;;;;;;;1999.90;999.90;;;3.60;99.90;;;;;;4992435;28;20460;-71
2022/04/10 00:35:06;;;;;;;1999.90;999.90;;;3.60;99.90;;;;;;4974824;28;20169;-71
2022/04/10 00:37:32;;;;;;;1999.90;999.90;;;3.70;99.90;;;;;;4992303;28;20249;-71
2022/04/10 00:39:58;;;;;;;1999.90;999.90;;;3.70;99.90;;;;;;4992352;28;20425;-71
2022/04/10 00:42:37;;;;;;;1999.90;999.90;;;3.60;99.90;;;;;;4992348;28;20178;-71
2022/04/10 00:45:04;;;;;;;1999.90;999.90;;;3.60;99.90;;;;;;4992116;28;20166;-71
2022/04/10 00:47:31;;;;;;;1999.90;999.90;;;3.60;99.90;;;;;;4992261;28;20405;-71
2022/04/10 00:49:58;;;;;;;1999.90;999.90;;;3.60;99.90;;;;;;4991946;28;20209;-71
2022/04/10 00:52:28;;;;;;;1999.90;999.90;;;3.60;99.90;;;;;;4992237;28;20198;-71
2022/04/10 00:54:54;;;;;;;1999.90;999.90;;;3.60;99.90;;;;;;4991867;28;20177;-71
2022/04/10 00:57:20;;;;;;;1999.90;999.90;;;3.60;99.90;;;;;;4992257;28;20635;-71
2022/04/10 00:59:46;;;;;;;1999.90;999.90;;;3.60;99.90;;;;;;4992228;28;20433;-71
2022/04/10 01:02:12;;;;;;;1999.90;999.90;;;3.60;99.90;;;;;;4995585;28;20174;-71
2022/04/10 01:04:38;;;;;;;1999.90;999.90;;;3.50;99.90;;;;;;4995563;28;20170;-71
2022/04/10 01:07:05;;;;;;;1999.90;999.90;;;3.70;99.90;;;;;;4995843;28;20267;-71
2022/04/10 01:09:34;;;;;;;1999.90;999.90;;;3.60;99.90;;;;;;4995595;28;20292;-71
2022/04/10 01:12:00;;;;;;;1999.90;999.90;;;3.60;99.90;;;;;;4995685;28;20455;-71
2022/04/10 01:14:27;;;;;;;1999.90;999.90;;;3.60;99.90;;;;;;4995372;28;20572;-71
2022/04/10 01:16:52;;;;;;;1999.90;999.90;;;3.60;99.90;;;;;;4995619;28;20230;-70
2022/04/10 01:19:19;;;;;;;1999.90;999.90;;;3.60;99.90;;;;;;4995473;28;20217;-70
2022/04/10 01:21:49;;;;;;;1999.90;999.90;;;3.60;99.90;;;;;;4995488;28;20588;-70
2022/04/10 01:24:16;;;;;;;1999.90;999.90;;;3.60;99.90;;;;;;4995172;28;20415;-70
2022/04/10 01:26:43;;;;;;;1999.90;999.90;;;3.70;99.90;;;;;;4995300;28;20178;-70
2022/04/10 01:29:11;;;;;;;1999.90;999.90;;;3.70;99.90;;;;;;4995217;28;20205;-69
2022/04/10 01:31:42;;;;;;;1999.90;999.90;;;3.70;99.90;;;;;;4995248;28;20403;-69
2022/04/10 01:34:10;;;;;;;1999.90;999.90;;;3.80;99.90;;;;;;4994970;28;20201;-69
2022/04/10 01:36:37;;;;;;;1999.90;999.90;;;3.80;99.90;;;;;;4995199;28;21139;-70
2022/04/10 01:39:05;;;;;;;1999.90;999.90;;;3.80;99.90;;;;;;4995187;28;20301;-69
2022/04/10 01:41:32;;;;;;;1999.90;999.90;;;3.70;99.90;;;;;;4995148;28;20180;-70
2022/04/10 01:43:58;;;;;;;1999.90;999.90;;;3.70;99.90;;;;;;4995038;28;20185;-69
2022/04/10 01:46:28;;;;;;;1999.90;999.90;;;3.70;99.90;;;;;;4995041;28;20170;-70
2022/04/10 01:48:53;;;;;;;1999.90;999.90;;;3.70;99.90;;;;;;4994698;28;20527;-69
2022/04/10 01:51:19;;;;;;;1999.90;999.90;;;3.70;99.90;;;;;;4994920;28;20301;-70
2022/04/10 01:53:45;;;;;;;1999.90;999.90;;;3.70;99.90;;;;;;4994998;28;20644;-71
2022/04/10 01:56:11;;;;;;;1999.90;999.90;;;3.70;99.90;;;;;;4994691;28;20166;-69
2022/04/10 01:58:39;;;;;;;1999.90;999.90;;;3.60;99.90;;;;;;4977278;28;20309;-70
2022/04/10 02:01:07;;;;;;;1999.90;999.90;;;3.60;99.90;;;;;;4994777;28;20227;-70
2022/04/10 02:03:33;;;;;;;1999.90;999.90;;;3.60;99.90;;;;;;4994732;28;20193;-70
2022/04/10 02:06:00;;;;;;;1999.90;999.90;;;3.60;99.90;;;;;;4994393;28;20236;-69
2022/04/10 02:08:26;;;;;;;1999.90;999.90;;;3.60;99.90;;;;;;4994573;28;20425;-70
2022/04/10 02:10:52;;;;;;;1999.90;999.90;;;3.60;99.90;;;;;;4994367;28;20452;-70
2022/04/10 02:13:19;;;;;;;1999.90;999.90;;;3.60;99.90;;;;;;4994443;28;20415;-69
2022/04/10 02:15:45;;;;;;;1999.90;999.90;;;3.70;99.90;;;;;;4994311;28;20408;-70
2022/04/10 02:18:12;;;;;;;1999.90;999.90;;;3.70;99.90;;;;;;4994359;28;20180;-70
2022/04/10 02:20:37;;;;;;;1999.90;999.90;;;3.70;99.90;;;;;;4994401;28;20249;-71
2022/04/10 02:23:03;;;;;;;1999.90;999.90;;;3.70;99.90;;;;;;4994455;28;20178;-69
2022/04/10 02:25:29;;;;;;;1999.90;999.90;;;3.70;99.90;;;;;;4994103;28;20201;-70
2022/04/10 02:27:54;;;;;;;1999.90;999.90;;;3.80;99.90;;;;;;4994248;28;20173;-70
2022/04/10 02:30:20;;;;;;;1999.90;999.90;;;3.80;99.90;;;;;;4994220;28;20201;-71
2022/04/10 02:32:45;;;;;;;1999.90;999.90;;;3.90;99.90;;;;;;4994194;28;20532;-71
2022/04/10 02:35:11;;;;;;;1999.90;999.90;;;3.90;99.90;;;;;;4993907;28;20169;-70
2022/04/10 02:37:38;;;;;;;1999.90;999.90;;;4.10;99.90;;;;;;4994173;28;20673;-70
2022/04/10 02:40:05;;;;;;;1999.90;999.90;;;4.00;99.90;;;;;;4993998;28;20433;-70
2022/04/10 02:42:33;;;;;;;1999.90;999.90;;;4.00;99.90;;;;;;4994017;28;20180;-69
2022/04/10 02:45:00;;;;;;;1999.90;999.90;;;4.00;99.90;;;;;;4993728;28;20888;-70
2022/04/10 02:47:25;;;;;;;1999.90;999.90;;;4.10;99.90;;;;;;4993863;28;20205;-70
2022/04/10 02:49:51;;;;;;;1999.90;999.90;;;4.10;99.90;;;;;;5046646;23;20221;-72
2022/04/10 02:52:17;;;;;;;1999.90;999.90;;;4.10;99.90;;;;;;5014247;28;20260;-72
2022/04/10 02:54:44;;;;;;;1999.90;999.90;;;4.10;99.90;;;;;;5014023;28;20177;-71
2022/04/10 02:57:10;;;;;;;1999.90;999.90;;;4.10;99.90;;;;;;5014003;28;20979;-72
2022/04/10 02:59:35;;;;;;;1999.90;999.90;;;4.10;99.90;;;;;;5013938;28;20420;-72
2022/04/10 03:02:01;;;;;;;1999.90;999.90;;;4.10;99.90;;;;;;5013795;28;20170;-72
2022/04/10 03:04:26;;;;;;;1999.90;999.90;;;4.10;99.90;;;;;;5013954;28;20659;-72
2022/04/10 03:06:52;;;;;;;1999.90;999.90;;;4.20;99.90;;;;;;5014108;28;20200;-72
2022/04/10 03:09:18;;;;;;;1999.90;999.90;;;4.20;99.90;;;;;;5013860;28;20189;-72
2022/04/10 03:11:43;;;;;;;1999.90;999.90;;;4.10;99.90;;;;;;5013517;28;20689;-71
2022/04/10 03:14:10;;;;;;;1999.90;999.90;;;4.20;99.90;;;;;;5013169;28;20172;-72
2022/04/10 03:16:35;;;;;;;1999.90;999.90;;;4.10;99.90;;;;;;5013358;28;20176;-72
2022/04/10 03:19:01;;;;;;;1999.90;999.90;;;4.10;99.90;;;;;;5013323;28;20435;-72
2022/04/10 03:21:27;;;;;;;1999.90;999.90;;;4.20;99.90;;;;;;5013403;28;20633;-71
2022/04/10 03:23:52;;;;;;;1999.90;999.90;;;4.20;99.90;;;;;;5012608;28;20642;-71
2022/04/10 03:26:18;;;;;;;1999.90;999.90;;;4.20;99.90;;;;;;5012962;28;20243;-72
2022/04/10 03:28:43;;;;;;;1999.90;999.90;;;4.30;99.90;;;;;;5013015;28;20219;-72
2022/04/10 03:31:09;;;;;;;1999.90;999.90;;;4.30;99.90;;;;;;5013253;28;20169;-71
2022/04/10 03:33:34;;;;;;;1999.90;999.90;;;4.30;99.90;;;;;;5013384;28;20165;-72
2022/04/10 03:36:00;;;;;;;1999.90;999.90;;;4.30;99.90;;;;;;5012847;28;20168;-72
2022/04/10 03:38:26;;;;;;;1999.90;999.90;;;4.40;99.90;;;;;;5013030;28;20240;-72
2022/04/10 03:40:51;;;;;;;1999.90;999.90;;;4.40;99.90;;;;;;5013233;28;20169;-71
2022/04/10 03:43:17;;;;;;;1999.90;999.90;;;4.30;99.90;;;;;;5013033;28;20173;-72
2022/04/10 03:45:42;;;;;;;1999.90;999.90;;;4.40;99.90;;;;;;5012579;28;20544;-72
2022/04/10 03:48:09;;;;;;;1999.90;999.90;;;4.40;99.90;;;;;;5013431;28;20259;-72
2022/04/10 03:50:35;;;;;;;1999.90;999.90;;;4.40;99.90;;;;;;5012689;28;20208;-72
2022/04/10 03:53:02;;;;;;;1999.90;999.90;;;4.40;99.90;;;;;;5012810;28;20404;-72
2022/04/10 03:55:28;;;;;;;1999.90;999.90;;;4.40;99.90;;;;;;5012506;28;20173;-72
2022/04/10 03:57:54;;;;;;;1999.90;999.90;;;4.50;99.90;;;;;;5012697;28;20168;-72
2022/04/10 04:00:20;;;;;;;1999.90;999.90;;;4.50;99.90;;;;;;5012701;28;20534;-71
2022/04/10 04:02:46;;;;;;;1999.90;999.90;;;4.60;99.90;;;;;;5012707;28;20176;-72
2022/04/10 04:05:12;;;;;;;1999.90;999.90;;;4.60;99.90;;;;;;5012714;28;20411;-72
2022/04/10 04:07:38;;;;;;;1999.90;999.90;;;4.50;99.90;;;;;;5012694;28;20776;-72
2022/04/10 04:10:06;;;;;;;1999.90;999.90;;;4.60;99.90;;;;;;5012516;28;20482;-72
2022/04/10 04:12:33;;;;;;;1999.90;999.90;;;4.50;99.90;;;;;;5012636;28;20181;-72
2022/04/10 04:14:59;;;;;;;1999.90;999.90;;;4.60;99.90;;;;;;5012506;28;20936;-71
2022/04/10 04:17:24;;;;;;;1999.90;999.90;;;4.60;99.90;;;;;;5012708;28;20399;-71
2022/04/10 04:19:51;;;;;;;1999.90;999.90;;;4.60;99.90;;;;;;5012973;28;20761;-71
2022/04/10 04:22:19;;;;;;;1999.90;999.90;;;4.50;99.90;;;;;;5012813;28;20168;-72
2022/04/10 04:24:45;;;;;;;1999.90;999.90;;;4.60;99.90;;;;;;5012457;28;20447;-72
2022/04/10 04:27:11;;;;;;;1999.90;999.90;;;4.60;99.90;;;;;;5012596;28;20436;-71
2022/04/10 04:29:37;;;;;;;1999.90;999.90;;;4.50;99.90;;;;;;5012402;28;20451;-72
2022/04/10 04:32:03;;;;;;;1999.90;999.90;;;4.60;99.90;;;;;;5012786;28;20169;-72
2022/04/10 04:34:28;;;;;;;1999.90;999.90;;;4.60;99.90;;;;;;5013052;28;20207;-72
2022/04/10 04:36:54;;;;;;;1999.90;999.90;;;4.50;99.90;;;;;;5016418;28;20403;-72
2022/04/10 04:39:20;;;;;;;1999.90;999.90;;;4.60;99.90;;;;;;5016330;28;20562;-72
2022/04/10 04:41:46;;;;;;;1999.90;999.90;;;4.60;99.90;;;;;;5016244;28;20181;-71
2022/04/10 04:44:11;;;;;;;1999.90;999.90;;;4.50;99.90;;;;;;5016025;28;20169;-71
2022/04/10 04:46:37;;;;;;;1999.90;999.90;;;4.50;99.90;;;;;;5016212;28;20218;-72
2022/04/10 04:49:03;;;;;;;1999.90;999.90;;;4.50;99.90;;;;;;5016228;28;20689;-71
2022/04/10 04:51:29;;;;;;;1999.90;999.90;;;4.50;99.90;;;;;;5016301;28;20168;-72
2022/04/10 04:53:55;;;;;;;1999.90;999.90;;;4.50;99.90;;;;;;5016400;28;20400;-72
2022/04/10 04:56:21;;;;;;;1999.90;999.90;;;4.50;99.90;;;;;;5016036;28;20169;-72
2022/04/10 04:58:50;;;;;;;1999.90;999.90;;;4.50;99.90;;;;;;5015930;28;20185;-71
2022/04/10 05:01:15;;;;;;;1999.90;999.90;;;4.50;99.90;;;;;;5016202;28;20783;-72
2022/04/10 05:03:41;;;;;;;1999.90;999.90;;;4.60;99.90;;;;;;5015979;28;20487;-71
2022/04/10 05:06:07;;;;;;;1999.90;999.90;;;4.60;99.90;;;;;;5015950;28;21003;-72
2022/04/10 05:08:32;;;;;;;1999.90;999.90;;;4.60;99.90;;;;;;5015939;28;20188;-72
2022/04/10 05:10:59;;;;;;;1999.90;999.90;;;4.60;99.90;;;;;;5015633;28;20545;-71
2022/04/10 05:13:26;;;;;;;1999.90;999.90;;;4.60;99.90;;;;;;5015407;28;20722;-72
2022/04/10 05:15:51;;;;;;;1999.90;999.90;;;4.60;99.90;;;;;;5015218;28;20412;-72
2022/04/10 05:18:19;;;;;;;1999.90;999.90;;;4.60;99.90;;;;;;5015512;28;20406;-72
2022/04/10 05:20:45;;;;;;;1999.90;999.90;;;4.70;99.90;;;;;;5015546;28;20169;-72
2022/04/10 05:23:11;;;;;;;1999.90;999.90;;;4.70;99.90;;;;;;5015558;28;20404;-72
2022/04/10 05:25:37;;;;;;;1999.90;999.90;;;4.70;99.90;;;;;;5015234;28;20408;-72
2022/04/10 05:28:03;;;;;;;1999.90;999.90;;;4.70;99.90;;;;;;5015488;28;20411;-71
2022/04/10 05:30:29;;;;;;;1999.90;999.90;;;4.80;99.90;;;;;;5015225;28;20546;-72
2022/04/10 05:32:54;;;;;;;1999.90;999.90;;;4.80;99.90;;;;;;5015344;28;20550;-72
2022/04/10 05:35:20;;;;;;;1999.90;999.90;;;4.90;99.90;;;;;;5015002;28;20613;-71
2022/04/10 05:37:45;;;;;;;1999.90;999.90;;;4.90;99.90;;;;;;5015175;28;20173;-72
2022/04/10 05:40:12;;;;;;;1999.90;999.90;;;4.90;99.90;;;;;;5015142;28;20254;-71
2022/04/10 05:42:38;;;;;;;1999.90;999.90;;;5.00;99.90;;;;;;5015103;28;20676;-71
2022/04/10 05:45:04;;;;;;;1999.90;999.90;;;5.00;99.90;;;;;;5014888;28;20474;-72
2022/04/10 05:47:30;;;;;;;1999.90;999.90;;;5.10;99.90;;;;;;5014409;28;20405;-71
2022/04/10 05:49:56;;;;;;;1999.90;999.90;;;5.10;99.90;;;;;;5014650;28;20463;-71
2022/04/10 05:52:21;;;;;;;1999.90;999.90;;;5.20;99.90;;;;;;5014944;28;20650;-72
2022/04/10 05:54:47;;;;;;;1999.90;999.90;;;5.30;99.90;;;;;;5014718;28;20227;-71
2022/04/10 05:57:12;;;;;;;1999.90;999.90;;;5.40;99.90;;;;;;5014834;28;20682;-72
2022/04/10 05:59:38;;;;;;;1999.90;999.90;;;5.40;99.90;;;;;;5015163;28;20189;-72
2022/04/10 06:02:04;;;;;;;1999.90;999.90;;;5.40;99.90;;;;;;5014643;28;20184;-72
2022/04/10 06:04:29;;;;;;;1999.90;999.90;;;5.50;99.90;;;;;;5014397;28;20197;-72
2022/04/10 06:06:55;;;;;;;1999.90;999.90;;;5.60;99.90;;;;;;5014504;28;20412;-71
2022/04/10 06:09:21;;;;;;;1999.90;999.90;;;5.60;99.90;;;;;;5014461;28;20686;-71
2022/04/10 06:11:46;;;;;;;1999.90;999.90;;;5.70;99.90;;;;;;5014462;28;20256;-72
2022/04/10 06:14:12;;;;;;;1999.90;999.90;;;5.70;99.90;;;;;;5014362;28;20708;-72
2022/04/10 06:16:37;;;;;;;1999.90;999.90;;;5.60;99.90;;;;;;5014493;28;20173;-71
2022/04/10 06:19:03;;;;;;;1999.90;999.90;;;5.70;99.90;;;;;;5014355;28;20264;-71
2022/04/10 06:21:28;;;;;;;1999.90;999.90;;;5.70;99.90;;;;;;5014338;28;20168;-72
2022/04/10 06:23:54;;;;;;;1999.90;999.90;;;5.70;99.90;;;;;;5014310;28;20169;-71
2022/04/10 06:26:20;;;;;;;1999.90;999.90;;;5.70;99.90;;;;;;5013904;28;20161;-71
2022/04/10 06:28:45;;;;;;;1999.90;999.90;;;5.80;99.90;;;;;;5014092;28;20185;-71
2022/04/10 06:31:11;;;;;;;1999.90;999.90;;;5.90;99.90;;;;;;5014478;28;20169;-72
2022/04/10 06:33:37;;;;;;;1999.90;999.90;;;5.80;99.90;;;;;;5014153;28;20161;-72
2022/04/10 06:36:03;;;;;;;1999.90;999.90;;;5.90;99.90;;;;;;5013797;28;20173;-71
2022/04/10 06:38:28;;;;;;;1999.90;999.90;;;5.90;99.90;;;;;;5014097;28;20569;-72
2022/04/10 06:40:54;;;;;;;1999.90;999.90;;;6.00;99.90;;;;;;5014059;28;20976;-71
2022/04/10 06:43:20;;;;;;;1999.90;999.90;;;6.00;99.90;;;;;;5014167;28;20231;-71
2022/04/10 06:45:47;;;;;;;1999.90;999.90;;;6.00;99.90;;;;;;5013861;28;20566;-72
2022/04/10 06:48:13;;;;;;;1999.90;999.90;;;6.00;99.90;;;;;;5013837;28;20408;-71
2022/04/10 06:50:38;;;;;;;1999.90;999.90;;;6.00;99.90;;;;;;5013787;28;20995;-71
2022/04/10 06:53:04;;;;;;;1999.90;999.90;;;5.90;99.90;;;;;;5013681;28;20177;-71
2022/04/10 06:55:31;;;;;;;1999.90;999.90;;;6.00;99.90;;;;;;5013404;28;20180;-72
2022/04/10 06:57:57;;;;;;;1999.90;999.90;;;6.00;99.90;;;;;;5012875;28;20666;-71
2022/04/10 07:00:22;;;;;;;1999.90;999.90;;;6.00;99.90;;;;;;5013706;28;20435;-72
2022/04/10 07:02:48;;;;;;;1999.90;999.90;;;6.00;99.90;;;;;;5013716;28;20419;-71
2022/04/10 07:05:14;;;;;;;1999.90;999.90;;;6.00;99.90;;;;;;5013492;28;20172;-72
2022/04/10 07:07:40;;;;;;;1999.90;999.90;;;6.00;99.90;;;;;;5014155;28;20176;-72
2022/04/10 07:10:05;;;;;;;1999.90;999.90;;;6.10;99.90;;;;;;5013659;28;20542;-72
2022/04/10 07:12:31;;;;;;;1999.90;999.90;;;6.10;99.90;;;;;;5013698;28;20539;-72
2022/04/10 07:15:01;;;;;;;1999.90;999.90;;;6.20;99.90;;;;;;5013713;28;20701;-71
2022/04/10 07:17:27;;;;;;;1999.90;999.90;;;6.30;99.90;;;;;;5013558;28;20208;-71
2022/04/10 07:19:53;;;;;;;1999.90;999.90;;;6.30;99.90;;;;;;5013383;28;20431;-72
2022/04/10 07:25:03;;;;;;;1999.90;999.90;;;6.30;99.90;;;;;;5012967;28;20226;-72
2022/04/10 07:27:29;;;;;;;1999.90;999.90;;;6.40;99.90;;;;;;5013299;28;20442;-72
2022/04/10 07:29:55;;;;;;;1999.90;999.90;;;6.50;99.90;;;;;;5012968;28;20448;-72
2022/04/10 07:32:20;;;;;;;1999.90;999.90;;;6.60;99.90;;;;;;5013050;28;20793;-72
2022/04/10 07:34:46;;;;;;;1999.90;999.90;;;6.70;99.90;;;;;;5012801;28;20168;-72
2022/04/10 07:37:11;;;;;;;1999.90;999.90;;;6.70;99.90;;;;;;5012905;28;20696;-71
2022/04/10 07:39:37;;;;;;;1999.90;999.90;;;7.00;99.90;;;;;;5012730;28;20200;-71
2022/04/10 07:42:03;;;;;;;1999.90;999.90;;;6.90;99.90;;;;;;5012951;28;20546;-70
2022/04/10 07:44:29;;;;;;;1999.90;999.90;;;6.90;99.90;;;;;;5012710;28;20173;-71
2022/04/10 07:49:39;;;;;;;1999.90;999.90;;;7.00;99.90;;;;;;5012801;28;20585;-72
2022/04/10 07:52:04;;;;;;;1999.90;999.90;;;7.20;99.90;;;;;;5012808;28;20409;-72
2022/04/10 07:54:30;;;;;;;1999.90;999.90;;;7.20;99.90;;;;;;5012606;28;20169;-72
2022/04/10 07:56:56;;;;;;;1999.90;999.90;;;7.30;99.90;;;;;;5013345;28;20924;-72
2022/04/10 07:59:23;;;;;;;1999.90;999.90;;;7.30;99.90;;;;;;5013684;28;20197;-72
2022/04/10 08:01:49;;;;;;;1999.90;999.90;;;7.40;99.90;;;;;;5014372;28;20177;-72
2022/04/10 08:04:14;;;;;;;1999.90;999.90;;;7.60;99.90;;;;;;5013296;28;20411;-72
2022/04/10 08:06:40;;;;;;;1999.90;999.90;;;7.80;99.90;;;;;;5013711;28;20169;-72
2022/04/10 08:09:06;;;;;;;1999.90;999.90;;;7.90;99.90;;;;;;5013207;28;20279;-72
2022/04/10 08:11:31;;;;;;;1999.90;999.90;;;8.00;99.90;;;;;;5014313;28;20685;-72
2022/04/10 08:13:57;;;;;;;1999.90;999.90;;;8.10;99.90;;;;;;5013578;28;20173;-73
2022/04/10 08:16:22;;;;;;;1999.90;999.90;;;8.10;99.90;;;;;;5013273;28;20718;-72
2022/04/10 08:18:48;;;;;;;1999.90;999.90;;;8.20;99.90;;;;;;5013754;28;20185;-72
2022/04/10 08:21:13;;;;;;;1999.90;999.90;;;8.20;99.90;;;;;;5014053;28;20231;-72
2022/04/10 08:23:39;;;;;;;1999.90;999.90;;;8.20;99.90;;;;;;5012251;28;20172;-72
2022/04/10 08:26:05;;;;;;;1999.90;999.90;;;8.30;99.90;;;;;;5012013;28;20181;-72
2022/04/10 08:28:32;;;;;;;1999.90;999.90;;;8.00;99.90;;;;;;5012086;28;20197;-71
2022/04/10 08:30:58;;;;;;;1999.90;999.90;;;7.90;99.90;;;;;;5012053;28;20220;-72
2022/04/10 08:33:23;;;;;;;1999.90;999.90;;;8.00;99.90;;;;;;5012064;28;20850;-72
2022/04/10 08:35:49;;;;;;;1999.90;999.90;;;8.10;99.90;;;;;;5011997;28;20177;-72
2022/04/10 08:38:14;;;;;;;1999.90;999.90;;;8.20;99.90;;;;;;5012138;28;20169;-72
2022/04/10 08:40:40;;;;;;;1999.90;999.90;;;8.20;99.90;;;;;;5012061;28;20197;-72
2022/04/10 08:43:07;;;;;;;1999.90;999.90;;;8.10;99.90;;;;;;5012029;28;20169;-72
2022/04/10 08:45:33;;;;;;;1999.90;999.90;;;8.00;99.90;;;;;;5011714;28;20165;-72
2022/04/10 08:47:59;;;;;;;1999.90;999.90;;;8.30;99.90;;;;;;5011870;28;20409;-72
2022/04/10 08:50:26;;;;;;;1999.90;999.90;;;8.50;99.90;;;;;;5012034;28;20296;-72
2022/04/10 08:52:55;;;;;;;1999.90;999.90;;;8.60;99.90;;;;;;5012059;28;20401;-72
2022/04/10 08:55:21;;;;;;;1999.90;999.90;;;8.70;99.90;;;;;;5011808;28;20404;-72
2022/04/10 08:57:46;;;;;;;1999.90;999.90;;;8.70;99.90;;;;;;5011887;28;20491;-72
2022/04/10 09:00:12;;;;;;;1999.90;999.90;;;8.70;99.90;;;;;;5008947;28;20239;-71
2022/04/10 09:02:50;;;;;;;1999.90;999.90;;;8.30;99.90;;;;;;5010911;28;20250;-70
2022/04/10 09:05:20;;;;;;;1999.90;999.90;;;8.20;99.90;;;;;;5011095;28;20437;-70
2022/04/10 09:08:11;;;;;;;1999.90;999.90;;;8.40;99.90;;;;;;5011371;28;20402;-71
2022/04/10 09:11:03;;;;;;;1999.90;999.90;;;8.50;99.90;;;;;;5011122;28;20473;-71
2022/04/10 09:13:32;;;;;;;1999.90;999.90;;;8.50;99.90;;;;;;5011164;28;20405;-71
2022/04/10 09:16:16;;;;;;;1999.90;999.90;;;8.80;99.90;;;;;;5011140;28;20405;-70
2022/04/10 09:18:48;;;;;;;1999.90;999.90;;;9.10;99.90;;;;;;5011177;28;20412;-71
2022/04/10 09:21:14;;;;;;;1999.90;999.90;;;9.20;99.90;;;;;;5011755;28;20450;-72
2022/04/10 09:23:39;;;;;;;1999.90;999.90;;;8.90;99.90;;;;;;5014978;28;20408;-71
2022/04/10 09:26:05;;;;;;;1999.90;999.90;;;8.80;99.90;;;;;;5014707;28;20416;-71
2022/04/10 09:28:48;;;;;;;1999.90;999.90;;;8.70;99.90;;;;;;5014942;28;20201;-72
2022/04/10 09:31:34;;;;;;;1999.90;999.90;;;8.70;99.90;;;;;;5014966;28;20216;-71
2022/04/10 09:34:02;;;;;;;1999.90;999.90;;;8.80;99.90;;;;;;5014283;28;20456;-70
2022/04/10 09:36:48;;;;;;;1999.90;999.90;;;8.90;99.90;;;;;;5015047;28;20441;-72
2022/04/10 09:39:33;;;;;;;1999.90;999.90;;;9.00;99.90;;;;;;5014244;28;20480;-72
2022/04/10 09:42:10;;;;;;;1999.90;999.90;;;9.20;99.90;;;;;;5011368;28;20408;-71
2022/04/10 09:44:37;;;;;;;1999.90;999.90;;;9.30;99.90;;;;;;5011158;28;20469;-71
2022/04/10 09:47:06;;;;;;;1999.90;999.90;;;9.30;99.90;;;;;;5013924;28;20420;-71
2022/04/10 09:49:39;;;;;;;1999.90;999.90;;;9.40;99.90;;;;;;5013392;28;20472;-68
2022/04/10 09:52:14;;;;;;;1999.90;999.90;;;9.20;99.90;;;;;;5014168;28;20420;-71
2022/04/10 09:54:47;;;;;;;1999.90;999.90;;;9.00;99.90;;;;;;5013035;28;20977;-71
2022/04/10 09:57:14;;;;;;;1999.90;999.90;;;8.90;99.90;;;;;;5013915;28;20398;-71
2022/04/10 09:59:45;;;;;;;1999.90;999.90;;;9.00;99.90;;;;;;5013753;28;21012;-71
2022/04/10 10:02:16;;;;;;;1999.90;999.90;;;9.10;99.90;;;;;;5012091;28;20451;-71
2022/04/10 10:04:43;;;;;;;1999.90;999.90;;;9.50;99.90;;;;;;5011677;28;20420;-71
2022/04/10 10:07:17;;;;;;;1999.90;999.90;;;9.80;99.90;;;;;;5005411;28;20430;-72
2022/04/10 10:09:44;;;;;;;1999.90;999.90;;;10.10;99.90;;;;;;5013612;28;20547;-71
2022/04/10 10:12:11;;;;;;;1999.90;999.90;;;9.90;99.90;;;;;;5013516;28;20491;-72
2022/04/10 10:14:39;;;;;;;1999.90;999.90;;;9.40;99.90;;;;;;5013391;28;20409;-71
2022/04/10 10:17:06;;;;;;;1999.90;999.90;;;9.50;99.90;;;;;;5013852;28;20409;-72
2022/04/10 10:19:43;;;;;;;1999.90;999.90;;;9.80;99.90;;;;;;5012222;28;20443;-71
2022/04/10 10:22:15;;;;;;;1999.90;999.90;;;10.20;99.90;;;;;;5005888;28;20413;-70
2022/04/10 10:25:09;;;;;;;1999.90;999.90;;;10.20;99.90;;;;;;5013305;28;21071;-71
2022/04/10 10:27:50;;;;;;;1999.90;999.90;;;10.20;99.90;;;;;;5013254;28;20411;-72
2022/04/10 10:30:43;;;;;;;1999.90;999.90;;;10.10;99.90;;;;;;5013276;28;20556;-71
2022/04/10 10:33:20;;;;;;;1999.90;999.90;;;10.00;99.90;;;;;;5004614;28;20419;-72
2022/04/10 10:35:51;;;;;;;1999.90;999.90;;;10.00;99.90;;;;;;5013045;28;20833;-71
2022/04/10 10:38:26;;;;;;;1999.90;999.90;;;10.30;99.90;;;;;;5012790;28;20826;-71
2022/04/10 10:41:16;;;;;;;1999.90;999.90;;;10.70;99.90;;;;;;5012617;28;20395;-72
2022/04/10 10:43:42;;;;;;;1999.90;999.90;;;10.80;99.90;;;;;;5013336;28;20410;-70
2022/04/10 10:46:20;;;;;;;1999.90;999.90;;;10.60;99.90;;;;;;5012584;28;20904;-71
2022/04/10 10:48:46;;;;;;;1999.90;999.90;;;10.70;99.90;;;;;;5012555;28;20207;-71
2022/04/10 10:51:11;;;;;;;1999.90;999.90;;;10.70;99.90;;;;;;5013103;28;20449;-70
2022/04/10 10:53:42;;;;;;;1999.90;999.90;;;10.40;99.90;;;;;;5012891;28;20433;-70
2022/04/10 10:56:13;;;;;;;1999.90;999.90;;;10.10;99.90;;;;;;5011860;28;20642;-70
2022/04/10 10:58:40;;;;;;;1999.90;999.90;;;9.90;99.90;;;;;;5012676;28;20508;-70
2022/04/10 11:01:07;;;;;;;1999.90;999.90;;;9.70;99.90;;;;;;5012663;28;20534;-70
2022/04/10 11:03:53;;;;;;;1999.90;999.90;;;9.40;99.90;;;;;;5012488;28;20414;-71
2022/04/10 11:06:21;;;;;;;1999.90;999.90;;;9.40;99.90;;;;;;5012009;28;20429;-70
2022/04/10 11:08:46;;;;;;;1999.90;999.90;;;9.30;99.90;;;;;;5012817;28;20431;-71
2022/04/10 11:11:18;;;;;;;1999.90;999.90;;;9.80;99.90;;;;;;5012174;28;20481;-70
2022/04/10 11:13:46;;;;;;;1999.90;999.90;;;10.30;99.90;;;;;;5012619;28;20170;-70
2022/04/10 11:16:13;;;;;;;1999.90;999.90;;;10.60;99.90;;;;;;5012233;28;20408;-70
2022/04/10 11:18:53;;;;;;;1999.90;999.90;;;11.10;99.90;;;;;;5011804;28;20449;-70
2022/04/10 11:21:20;;;;;;;1999.90;999.90;;;11.40;99.90;;;;;;5012460;28;20923;-71
2022/04/10 11:23:48;;;;;;;1999.90;999.90;;;11.70;99.90;;;;;;5012567;28;20407;-70
2022/04/10 11:26:20;;;;;;;1999.90;999.90;;;11.50;99.90;;;;;;5011450;28;20817;-70
2022/04/10 11:28:54;;;;;;;1999.90;999.90;;;11.20;99.90;;;;;;5012137;28;20797;-70
2022/04/10 11:31:40;;;;;;;1999.90;999.90;;;11.10;99.90;;;;;;5012419;28;20465;-70
2022/04/10 11:34:10;;;;;;;1999.90;999.90;;;11.20;99.90;;;;;;5011462;28;20391;-71
2022/04/10 11:36:48;;;;;;;1999.90;999.90;;;10.90;99.90;;;;;;5012202;28;20404;-70
2022/04/10 11:39:14;;;;;;;1999.90;999.90;;;10.60;99.90;;;;;;5011884;28;20481;-70
2022/04/10 11:41:42;;;;;;;1999.90;999.90;;;10.50;99.90;;;;;;5011620;28;20410;-71
2022/04/10 11:44:08;;;;;;;1999.90;999.90;;;10.70;99.90;;;;;;5010907;28;20393;-71
2022/04/10 11:46:37;;;;;;;1999.90;999.90;;;10.90;99.90;;;;;;5012264;28;20878;-71
2022/04/10 11:49:03;;;;;;;1999.90;999.90;;;11.00;99.90;;;;;;5011343;28;20485;-70
2022/04/10 11:51:29;;;;;;;1999.90;999.90;;;10.70;99.90;;;;;;5012030;28;20415;-70
2022/04/10 11:53:55;;;;;;;1999.90;999.90;;;10.50;99.90;;;;;;5012064;28;20518;-70
2022/04/10 11:56:21;;;;;;;1999.90;999.90;;;10.40;99.90;;;;;;5011072;28;20658;-71
2022/04/10 11:58:47;;;;;;;1999.90;999.90;;;10.40;99.90;;;;;;5011664;28;20423;-70
2022/04/10 12:01:12;;;;;;;1999.90;999.90;;;10.60;99.90;;;;;;5011695;28;20175;-71
2022/04/10 12:03:43;;;;;;;1999.90;999.90;;;10.90;99.90;;;;;;5011359;28;20642;-71
2022/04/10 12:06:18;;;;;;;1999.90;999.90;;;11.80;99.90;;;;;;5011374;28;20547;-70
2022/04/10 12:08:45;;;;;;;1999.90;999.90;;;12.60;98.10;;;;;;5011997;28;20428;-71
2022/04/10 12:11:11;;;;;;;1999.90;999.90;;;12.50;98.00;;;;;;5011456;28;20451;-70
2022/04/10 12:13:39;;;;;;;1999.90;999.90;;;12.40;98.80;;;;;;5011854;28;20792;-71